Time;durP1;ratioP1;P1;durP2;ratioP2;P2;SDS_P1;SDS_P2;PMS_P1;PMS_P2;Temp;Humidity;BMP_temperature;BMP_pressure;BME280_temperature;BME280_humidity;BME280_pressure;Samples;Min_cycle;Max_cycle;Signal;HPM_P1;HPM_P2
2021/11/19 00:00:12;;;;;;;26.77;11.45;;;12.30;99.90;;;;;;5094876;28;20396;-69
2021/11/19 00:02:37;;;;;;;24.63;10.52;;;12.40;99.90;;;;;;5095131;28;20032;-69
2021/11/19 00:05:04;;;;;;;18.88;11.48;;;12.40;99.90;;;;;;5095089;28;20111;-69
2021/11/19 00:07:31;;;;;;;21.17;10.73;;;12.40;99.90;;;;;;5094047;28;20042;-69
2021/11/19 00:09:58;;;;;;;22.80;11.80;;;12.40;99.90;;;;;;5094709;28;20082;-69
2021/11/19 00:12:24;;;;;;;22.52;12.45;;;12.40;99.90;;;;;;5093707;28;20039;-69
2021/11/19 00:14:50;;;;;;;18.70;11.30;;;12.50;99.90;;;;;;5093673;28;20044;-69
2021/11/19 00:17:15;;;;;;;19.25;10.88;;;12.50;99.90;;;;;;5094909;28;20036;-69
2021/11/19 00:19:43;;;;;;;26.90;11.85;;;12.50;99.90;;;;;;5093333;28;20081;-69
2021/11/19 00:22:11;;;;;;;16.77;10.48;;;12.50;99.90;;;;;;5094553;28;20035;-69
2021/11/19 00:24:38;;;;;;;19.10;10.35;;;12.60;99.90;;;;;;5094686;28;20032;-69
2021/11/19 00:27:06;;;;;;;23.23;11.48;;;12.60;99.90;;;;;;5094520;28;20441;-69
2021/11/19 00:29:31;;;;;;;21.25;11.60;;;12.60;99.90;;;;;;5094383;28;20036;-69
2021/11/19 00:31:57;;;;;;;25.70;11.27;;;12.60;99.90;;;;;;5094992;28;20102;-69
2021/11/19 00:34:23;;;;;;;20.10;11.30;;;12.60;99.90;;;;;;5094746;28;20072;-70
2021/11/19 00:36:55;;;;;;;23.00;12.35;;;12.60;99.90;;;;;;5094696;28;20032;-69
2021/11/19 00:39:21;;;;;;;21.50;11.95;;;12.60;99.90;;;;;;5094230;28;20066;-70
2021/11/19 00:41:48;;;;;;;22.63;12.65;;;12.50;99.90;;;;;;5094293;28;20610;-70
2021/11/19 00:44:14;;;;;;;25.67;12.25;;;12.60;99.90;;;;;;5094588;28;20046;-69
2021/11/19 00:46:41;;;;;;;25.17;12.13;;;12.60;99.90;;;;;;5094277;28;20123;-70
2021/11/19 00:49:07;;;;;;;23.15;12.75;;;12.50;99.90;;;;;;5093880;28;20115;-70
2021/11/19 00:51:36;;;;;;;27.42;11.68;;;12.50;99.90;;;;;;5094511;28;20488;-70
2021/11/19 00:54:03;;;;;;;22.23;11.65;;;12.50;99.90;;;;;;5094105;28;20070;-70
2021/11/19 00:56:34;;;;;;;22.42;10.73;;;12.50;99.90;;;;;;5092818;28;20081;-69
2021/11/19 00:59:00;;;;;;;21.13;11.93;;;12.50;99.90;;;;;;5093122;28;20036;-70
2021/11/19 01:01:31;;;;;;;28.42;10.32;;;12.50;99.90;;;;;;5093801;28;20054;-69
2021/11/19 01:03:58;;;;;;;22.98;10.48;;;12.40;99.90;;;;;;5094060;28;20042;-70
2021/11/19 01:06:24;;;;;;;21.10;11.23;;;12.40;99.90;;;;;;5093969;28;20392;-69
2021/11/19 01:08:50;;;;;;;19.45;10.75;;;12.40;99.90;;;;;;5075340;28;20048;-69
2021/11/19 01:11:19;;;;;;;28.88;12.90;;;12.40;99.90;;;;;;5093941;28;20036;-69
2021/11/19 01:13:47;;;;;;;24.70;10.75;;;12.40;99.90;;;;;;5093595;28;20047;-69
2021/11/19 01:16:26;;;;;;;19.15;10.02;;;12.40;99.90;;;;;;5093745;28;20040;-69
2021/11/19 01:18:56;;;;;;;26.25;11.23;;;12.40;99.90;;;;;;5093235;28;20036;-69
2021/11/19 01:21:31;;;;;;;29.10;11.38;;;12.40;99.90;;;;;;5094073;28;20063;-69
2021/11/19 01:24:00;;;;;;;22.88;11.65;;;12.40;99.90;;;;;;5093926;28;20495;-69
2021/11/19 01:26:29;;;;;;;23.27;10.23;;;12.30;99.90;;;;;;5094141;28;20042;-69
2021/11/19 01:28:58;;;;;;;21.27;10.57;;;12.40;99.90;;;;;;5093784;28;20028;-69
2021/11/19 01:31:33;;;;;;;19.65;10.95;;;12.40;99.90;;;;;;5093429;28;20055;-69
2021/11/19 01:33:59;;;;;;;25.60;9.85;;;12.40;99.90;;;;;;5093423;28;20051;-69
2021/11/19 01:36:25;;;;;;;19.63;10.60;;;12.40;99.90;;;;;;5092550;28;20036;-69
2021/11/19 01:38:51;;;;;;;19.70;10.77;;;12.40;99.90;;;;;;5093285;28;20036;-69
2021/11/19 01:41:24;;;;;;;17.48;9.93;;;12.30;99.90;;;;;;5093785;28;20044;-69
2021/11/19 01:43:52;;;;;;;24.33;10.40;;;12.30;99.90;;;;;;5093303;28;20040;-69
2021/11/19 01:46:22;;;;;;;30.73;9.80;;;12.30;99.90;;;;;;5093975;28;20042;-70
2021/11/19 01:48:51;;;;;;;23.48;9.77;;;12.30;99.90;;;;;;5093193;28;20079;-70
2021/11/19 01:51:20;;;;;;;20.05;9.95;;;12.30;99.90;;;;;;5093646;28;20048;-69
2021/11/19 01:54:10;;;;;;;21.27;9.40;;;12.30;99.90;;;;;;5092520;28;20427;-70
2021/11/19 01:56:53;;;;;;;20.83;10.07;;;12.30;99.90;;;;;;5093591;28;20043;-70
2021/11/19 01:59:21;;;;;;;16.58;9.32;;;12.30;99.90;;;;;;5093139;28;20127;-70
2021/11/19 02:01:51;;;;;;;17.77;8.55;;;12.30;99.90;;;;;;5091811;28;20044;-70
2021/11/19 02:04:21;;;;;;;22.33;8.07;;;12.30;99.90;;;;;;5093378;28;20519;-70
2021/11/19 02:07:01;;;;;;;22.23;8.88;;;12.40;99.90;;;;;;5093289;28;20040;-70
2021/11/19 02:09:41;;;;;;;15.98;8.45;;;12.40;99.90;;;;;;5094551;28;20107;-70
2021/11/19 02:12:18;;;;;;;18.48;8.60;;;12.40;99.90;;;;;;5097517;28;20051;-69
2021/11/19 02:15:16;;;;;;;28.95;9.23;;;12.40;99.90;;;;;;5097236;28;20491;-70
2021/11/19 02:17:46;;;;;;;18.10;7.88;;;12.40;99.90;;;;;;5097450;28;20349;-70
2021/11/19 02:20:18;;;;;;;18.23;8.00;;;12.40;99.90;;;;;;5096693;28;20040;-70
2021/11/19 02:22:51;;;;;;;16.75;8.00;;;12.50;99.90;;;;;;5097147;28;20040;-70
2021/11/19 02:25:18;;;;;;;;;;;12.50;99.90;;;;;;5097712;28;20032;-70
2021/11/19 02:28:12;;;;;;;19.27;8.32;;;12.50;99.90;;;;;;5096852;28;19923;-70
2021/11/19 02:31:07;;;;;;;18.27;7.65;;;12.50;99.90;;;;;;5093148;28;20079;-70
2021/11/19 02:33:34;;;;;;;16.55;7.10;;;12.50;99.90;;;;;;5091713;28;20052;-70
2021/11/19 02:36:13;;;;;;;15.65;6.82;;;12.60;99.90;;;;;;5097635;28;20053;-69
2021/11/19 02:38:46;;;;;;;20.83;7.93;;;12.70;99.90;;;;;;5095379;28;20108;-70
2021/11/19 02:41:14;;;;;;;19.05;7.47;;;12.60;99.90;;;;;;5096917;28;20075;-70
2021/11/19 02:43:43;;;;;;;17.33;6.97;;;12.60;99.90;;;;;;5095560;28;20043;-70
2021/11/19 02:46:20;;;;;;;18.90;7.63;;;12.60;99.90;;;;;;5095272;28;20043;-70
2021/11/19 02:48:46;;;;;;;14.15;7.60;;;12.60;99.90;;;;;;5096446;28;20043;-70
2021/11/19 02:51:13;;;;;;;15.63;8.20;;;12.60;99.90;;;;;;5096754;28;20036;-70
2021/11/19 02:53:40;;;;;;;17.02;8.30;;;12.70;99.90;;;;;;5095522;28;20097;-70
2021/11/19 02:56:06;;;;;;;21.17;8.48;;;12.70;99.90;;;;;;5096379;28;20048;-70
2021/11/19 02:58:38;;;;;;;19.10;8.65;;;12.70;99.90;;;;;;5096023;28;20101;-70
2021/11/19 03:01:16;;;;;;;20.38;8.40;;;12.60;99.90;;;;;;5095336;28;20123;-70
2021/11/19 03:03:50;;;;;;;21.30;9.10;;;12.60;99.90;;;;;;5096869;28;20110;-70
2021/11/19 03:06:16;;;;;;;19.30;8.82;;;12.60;99.90;;;;;;5096511;28;20559;-69
2021/11/19 03:08:43;;;;;;;17.17;8.48;;;12.70;99.90;;;;;;5095452;28;20082;-70
2021/11/19 03:11:12;;;;;;;22.05;8.88;;;12.70;99.90;;;;;;5096059;28;20085;-70
2021/11/19 03:13:40;;;;;;;18.33;7.88;;;12.70;99.90;;;;;;5095966;28;20468;-70
2021/11/19 03:16:07;;;;;;;17.15;9.00;;;12.80;99.90;;;;;;5096102;28;20078;-69
2021/11/19 03:18:32;;;;;;;24.20;8.73;;;12.70;99.90;;;;;;5094575;28;20040;-70
2021/11/19 03:21:02;;;;;;;22.42;8.48;;;12.70;99.90;;;;;;5094886;28;20042;-70
2021/11/19 03:23:30;;;;;;;19.70;9.45;;;12.70;99.90;;;;;;5094515;28;20075;-70
2021/11/19 03:25:55;;;;;;;17.30;9.63;;;12.70;99.90;;;;;;5096625;28;20036;-70
2021/11/19 03:28:25;;;;;;;23.05;9.27;;;12.70;99.90;;;;;;5095749;28;20377;-70
2021/11/19 03:30:54;;;;;;;18.05;8.77;;;12.70;99.90;;;;;;5095529;28;20120;-70
2021/11/19 03:33:22;;;;;;;20.83;9.57;;;12.60;99.90;;;;;;5096052;28;20074;-70
2021/11/19 03:35:51;;;;;;;17.52;8.93;;;12.60;99.90;;;;;;5095617;28;20057;-70
2021/11/19 03:38:18;;;;;;;22.83;10.10;;;12.60;99.90;;;;;;5096085;28;20170;-70
2021/11/19 03:40:46;;;;;;;20.90;9.27;;;12.70;99.90;;;;;;5094990;28;20193;-70
2021/11/19 03:43:25;;;;;;;15.50;8.98;;;12.60;99.90;;;;;;5095973;28;20040;-69
2021/11/19 03:45:57;;;;;;;26.38;10.05;;;12.60;99.90;;;;;;5095883;28;20028;-70
2021/11/19 03:48:24;;;;;;;15.65;8.38;;;12.60;99.90;;;;;;5095862;28;20433;-70
2021/11/19 03:50:56;;;;;;;22.48;9.85;;;12.50;99.90;;;;;;5095122;28;20093;-70
2021/11/19 03:53:24;;;;;;;18.10;9.35;;;12.50;99.90;;;;;;5093996;28;20040;-70
2021/11/19 03:55:52;;;;;;;18.95;9.45;;;12.60;99.90;;;;;;5095380;28;20036;-70
2021/11/19 03:58:25;;;;;;;26.33;12.70;;;12.50;99.90;;;;;;5094476;28;20077;-70
2021/11/19 04:01:04;;;;;;;21.25;9.63;;;12.50;99.90;;;;;;5093686;28;20056;-70
2021/11/19 04:03:31;;;;;;;21.08;9.55;;;12.50;99.90;;;;;;5095303;28;20036;-70
2021/11/19 04:05:56;;;;;;;18.05;8.90;;;12.50;99.90;;;;;;5095271;28;20101;-70
2021/11/19 04:08:22;;;;;;;24.02;10.10;;;12.40;99.90;;;;;;5095113;28;20484;-70
2021/11/19 04:10:49;;;;;;;19.33;9.32;;;12.40;99.90;;;;;;5094922;28;20480;-70
2021/11/19 04:13:15;;;;;;;24.40;10.68;;;12.30;99.90;;;;;;5093592;28;20127;-70
2021/11/19 04:15:48;;;;;;;20.30;8.80;;;12.30;99.90;;;;;;5094784;28;20040;-70
2021/11/19 04:18:14;;;;;;;18.90;9.70;;;12.30;99.90;;;;;;5094888;28;20123;-70
2021/11/19 04:20:42;;;;;;;22.00;9.10;;;12.30;99.90;;;;;;5094786;28;20119;-70
2021/11/19 04:23:08;;;;;;;22.13;8.93;;;12.30;99.90;;;;;;5093413;28;20511;-70
2021/11/19 04:25:34;;;;;;;18.05;9.10;;;12.20;99.90;;;;;;5093828;28;20036;-70
2021/11/19 04:28:00;;;;;;;19.17;9.35;;;12.30;99.90;;;;;;5094626;28;20043;-70
2021/11/19 04:30:30;;;;;;;19.77;9.35;;;12.20;99.90;;;;;;5094204;28;20070;-70
2021/11/19 04:32:55;;;;;;;23.55;10.60;;;12.20;99.90;;;;;;5094338;28;20039;-70
2021/11/19 04:35:22;;;;;;;25.35;9.38;;;12.20;99.90;;;;;;5094670;28;20040;-69
2021/11/19 04:37:49;;;;;;;20.50;9.68;;;12.30;99.90;;;;;;5094463;28;20036;-70
2021/11/19 04:40:17;;;;;;;19.30;9.25;;;12.20;99.90;;;;;;5094100;28;20132;-70
2021/11/19 04:42:42;;;;;;;19.17;10.18;;;12.10;99.90;;;;;;5094693;28;20042;-70
2021/11/19 04:45:10;;;;;;;22.90;9.32;;;12.20;99.90;;;;;;5093595;28;20040;-70
2021/11/19 04:47:36;;;;;;;26.67;9.70;;;12.10;99.90;;;;;;5093167;28;20040;-70
2021/11/19 04:50:03;;;;;;;22.95;10.27;;;12.10;99.90;;;;;;5094171;28;20040;-70
2021/11/19 04:52:29;;;;;;;18.02;10.38;;;12.10;99.90;;;;;;5094351;28;20044;-70
2021/11/19 04:54:55;;;;;;;26.33;10.43;;;12.20;99.90;;;;;;5093860;28;20101;-70
2021/11/19 04:57:21;;;;;;;23.65;10.07;;;12.20;99.90;;;;;;5094526;28;20476;-70
2021/11/19 04:59:46;;;;;;;26.55;10.27;;;12.20;99.90;;;;;;5092766;28;20052;-70
2021/11/19 05:02:15;;;;;;;24.80;10.98;;;12.20;99.90;;;;;;5094122;28;20044;-70
2021/11/19 05:04:42;;;;;;;27.00;10.60;;;12.10;99.90;;;;;;5094470;28;20047;-69
2021/11/19 05:07:08;;;;;;;15.70;9.77;;;12.10;99.90;;;;;;5094828;28;20044;-69
2021/11/19 05:09:34;;;;;;;23.63;12.32;;;12.10;99.90;;;;;;5092960;28;20111;-70
2021/11/19 05:12:13;;;;;;;23.58;11.55;;;12.10;99.90;;;;;;5094111;28;20132;-70
2021/11/19 05:14:40;;;;;;;21.48;10.63;;;12.20;99.90;;;;;;5094317;28;20042;-70
2021/11/19 05:17:08;;;;;;;22.38;9.90;;;12.20;99.90;;;;;;5094085;28;20047;-70
2021/11/19 05:19:34;;;;;;;17.45;11.05;;;12.10;99.90;;;;;;5093367;28;20388;-70
2021/11/19 05:22:00;;;;;;;24.63;11.60;;;12.20;99.90;;;;;;5094171;28;20041;-70
2021/11/19 05:24:25;;;;;;;26.05;11.57;;;12.20;99.90;;;;;;5092645;28;20098;-70
2021/11/19 05:26:51;;;;;;;18.77;10.65;;;12.10;99.90;;;;;;5094572;28;20042;-70
2021/11/19 05:29:18;;;;;;;27.52;11.18;;;12.10;99.90;;;;;;5093853;28;20028;-70
2021/11/19 05:31:44;;;;;;;21.63;11.50;;;12.10;99.90;;;;;;5093876;28;20043;-69
2021/11/19 05:34:12;;;;;;;32.83;11.68;;;12.10;99.90;;;;;;5092841;28;20051;-69
2021/11/19 05:36:39;;;;;;;26.42;10.65;;;12.10;99.90;;;;;;5093564;28;20044;-70
2021/11/19 05:39:05;;;;;;;25.05;11.85;;;12.10;99.90;;;;;;5093654;28;20119;-70
2021/11/19 05:41:31;;;;;;;21.02;10.18;;;12.20;99.90;;;;;;5093490;28;20115;-70
2021/11/19 05:43:57;;;;;;;20.73;11.27;;;12.10;99.90;;;;;;5091699;28;20039;-70
2021/11/19 05:46:26;;;;;;;19.42;11.18;;;12.10;99.90;;;;;;5093982;28;20039;-69
2021/11/19 05:48:54;;;;;;;24.45;11.45;;;12.10;99.90;;;;;;5093196;28;20077;-70
2021/11/19 05:51:21;;;;;;;19.90;10.70;;;12.00;99.90;;;;;;5093391;28;20040;-70
2021/11/19 05:53:47;;;;;;;24.88;10.50;;;12.00;99.90;;;;;;5092007;28;20040;-70
2021/11/19 05:56:15;;;;;;;23.85;11.25;;;12.00;99.90;;;;;;5093646;28;20071;-69
2021/11/19 05:58:40;;;;;;;24.10;12.82;;;12.00;99.90;;;;;;5093034;28;20040;-69
2021/11/19 06:01:17;;;;;;;25.83;11.18;;;12.00;99.90;;;;;;5092210;28;20381;-70
2021/11/19 06:03:45;;;;;;;22.55;11.00;;;12.00;99.90;;;;;;5093496;28;20145;-70
2021/11/19 06:06:11;;;;;;;22.77;11.30;;;12.00;99.90;;;;;;5093529;28;20072;-70
2021/11/19 06:08:39;;;;;;;20.52;11.57;;;12.00;99.90;;;;;;5091917;28;20036;-70
2021/11/19 06:11:11;;;;;;;23.70;11.40;;;12.00;99.90;;;;;;5093429;28;20047;-70
2021/11/19 06:13:42;;;;;;;18.85;11.85;;;12.00;99.90;;;;;;5093375;28;20549;-70
2021/11/19 06:16:15;;;;;;;20.35;11.57;;;12.00;99.90;;;;;;5092407;28;20071;-70
2021/11/19 06:18:44;;;;;;;23.88;10.88;;;12.10;99.90;;;;;;5091539;28;20059;-70
2021/11/19 06:21:18;;;;;;;23.38;10.15;;;12.00;99.90;;;;;;5092961;28;20040;-70
2021/11/19 06:23:49;;;;;;;20.83;10.60;;;12.00;99.90;;;;;;5093288;28;20076;-69
2021/11/19 06:26:22;;;;;;;24.85;11.02;;;12.00;99.90;;;;;;5093359;28;20046;-70
2021/11/19 06:28:50;;;;;;;27.27;11.90;;;12.00;99.90;;;;;;5092979;28;20110;-70
2021/11/19 06:31:17;;;;;;;24.58;11.43;;;12.00;99.90;;;;;;5092906;28;20111;-70
2021/11/19 06:33:43;;;;;;;26.25;11.75;;;12.00;99.90;;;;;;5093002;28;20035;-70
2021/11/19 06:36:10;;;;;;;20.48;10.93;;;12.00;99.90;;;;;;5093172;28;20495;-70
2021/11/19 06:38:36;;;;;;;26.00;11.60;;;12.00;99.90;;;;;;5092630;28;20044;-70
2021/11/19 06:41:03;;;;;;;28.25;12.23;;;12.00;99.90;;;;;;5091726;28;20067;-69
2021/11/19 06:43:29;;;;;;;21.27;11.27;;;12.10;99.90;;;;;;5092615;28;20131;-69
2021/11/19 06:45:54;;;;;;;24.92;12.00;;;12.00;99.90;;;;;;5093542;28;20388;-70
2021/11/19 06:48:20;;;;;;;22.67;11.32;;;12.10;99.90;;;;;;5092967;28;20059;-70
2021/11/19 06:50:46;;;;;;;21.02;11.05;;;12.00;99.90;;;;;;5091417;28;20104;-70
2021/11/19 06:53:13;;;;;;;26.00;12.13;;;12.10;99.90;;;;;;5093424;28;20047;-70
2021/11/19 06:55:39;;;;;;;23.25;10.52;;;12.10;99.90;;;;;;5092074;28;20052;-69
2021/11/19 06:58:07;;;;;;;19.98;11.00;;;12.10;99.90;;;;;;5096299;28;20040;-70
2021/11/19 07:00:40;;;;;;;25.27;11.95;;;12.10;99.90;;;;;;5095873;28;20040;-70
2021/11/19 07:03:06;;;;;;;22.85;11.65;;;12.10;99.90;;;;;;5096652;28;20047;-69
2021/11/19 07:05:32;;;;;;;23.25;10.95;;;12.10;99.90;;;;;;5096279;28;20036;-70
2021/11/19 07:07:57;;;;;;;27.92;12.00;;;12.10;99.90;;;;;;5096117;28;20051;-69
2021/11/19 07:10:25;;;;;;;25.73;11.02;;;12.10;99.90;;;;;;5096202;28;20028;-70
2021/11/19 07:12:51;;;;;;;28.25;11.50;;;12.10;99.90;;;;;;5095972;28;20032;-70
2021/11/19 07:15:18;;;;;;;22.80;12.30;;;12.10;99.90;;;;;;5096205;28;20036;-70
2021/11/19 07:17:45;;;;;;;20.38;11.23;;;12.20;99.90;;;;;;5094907;28;20044;-69
2021/11/19 07:20:14;;;;;;;25.10;12.70;;;12.10;99.90;;;;;;5095497;28;20036;-69
2021/11/19 07:22:40;;;;;;;24.27;11.88;;;12.10;99.90;;;;;;5096073;28;20480;-70
2021/11/19 07:25:10;;;;;;;26.30;11.25;;;12.10;99.90;;;;;;5096236;28;20035;-70
2021/11/19 07:27:36;;;;;;;23.65;10.73;;;12.20;99.90;;;;;;5095620;28;20040;-70
2021/11/19 07:30:05;;;;;;;22.50;10.68;;;12.10;99.90;;;;;;5094169;28;20040;-70
2021/11/19 07:32:31;;;;;;;21.48;11.85;;;12.10;99.90;;;;;;5094479;28;20491;-70
2021/11/19 07:34:56;;;;;;;21.80;10.30;;;12.10;99.90;;;;;;5094831;28;20054;-70
2021/11/19 07:37:23;;;;;;;22.98;10.60;;;12.20;99.90;;;;;;5095740;28;20044;-70
2021/11/19 07:39:51;;;;;;;22.83;10.50;;;12.20;99.90;;;;;;5095383;28;20044;-70
2021/11/19 07:42:17;;;;;;;19.33;10.38;;;12.10;99.90;;;;;;5095780;28;20392;-70
2021/11/19 07:44:42;;;;;;;24.55;9.50;;;12.10;99.90;;;;;;5095709;28;20040;-71
2021/11/19 07:47:08;;;;;;;17.08;9.55;;;12.10;99.90;;;;;;5096038;28;20106;-71
2021/11/19 07:49:34;;;;;;;24.58;10.68;;;12.10;99.90;;;;;;5095329;28;20044;-71
2021/11/19 07:51:59;;;;;;;22.95;9.43;;;12.20;99.90;;;;;;5095583;28;20036;-70
2021/11/19 07:54:25;;;;;;;23.50;9.57;;;12.10;99.90;;;;;;5095231;28;20484;-69
2021/11/19 07:56:51;;;;;;;22.73;9.25;;;12.10;99.90;;;;;;5095159;28;20372;-69
2021/11/19 07:59:21;;;;;;;21.00;8.77;;;12.20;99.90;;;;;;5095228;28;20119;-69
2021/11/19 08:01:47;;;;;;;20.02;9.13;;;12.20;99.90;;;;;;5094877;28;20093;-69
2021/11/19 08:04:13;;;;;;;23.75;10.38;;;12.20;99.90;;;;;;5095539;28;20380;-69
2021/11/19 08:06:39;;;;;;;22.73;9.15;;;12.20;99.90;;;;;;5094584;28;20521;-69
2021/11/19 08:09:06;;;;;;;19.60;7.78;;;12.30;99.90;;;;;;5094450;28;20036;-69
2021/11/19 08:11:32;;;;;;;21.65;7.35;;;12.30;99.90;;;;;;5094928;28;20169;-69
2021/11/19 08:13:58;;;;;;;21.15;8.02;;;12.30;99.90;;;;;;5094780;28;20119;-69
2021/11/19 08:16:24;;;;;;;18.95;8.43;;;12.30;99.90;;;;;;5094969;28;20155;-69
2021/11/19 08:18:58;;;;;;;19.05;7.25;;;12.30;99.90;;;;;;5094507;28;20035;-69
2021/11/19 08:21:25;;;;;;;20.83;6.35;;;12.30;99.90;;;;;;5094317;28;20101;-70
2021/11/19 08:23:55;;;;;;;21.00;7.38;;;12.30;99.90;;;;;;5094486;28;20357;-70
2021/11/19 08:26:23;;;;;;;13.15;6.75;;;12.30;99.90;;;;;;5094757;28;20407;-70
2021/11/19 08:28:49;;;;;;;20.60;6.70;;;12.30;99.90;;;;;;5094355;28;20421;-71
2021/11/19 08:31:17;;;;;;;22.85;5.82;;;12.40;99.90;;;;;;5094807;28;20047;-70
2021/11/19 08:33:44;;;;;;;22.95;6.47;;;12.40;99.90;;;;;;5094674;28;20036;-70
2021/11/19 08:36:10;;;;;;;17.10;6.03;;;12.40;99.90;;;;;;5094647;28;20055;-70
2021/11/19 08:38:37;;;;;;;22.38;6.53;;;12.40;99.90;;;;;;5092861;28;20028;-70
2021/11/19 08:41:03;;;;;;;20.55;6.68;;;12.40;99.90;;;;;;5094442;28;20051;-70
2021/11/19 08:43:33;;;;;;;9.38;5.43;;;12.40;99.90;;;;;;5094473;28;20047;-70
2021/11/19 08:46:01;;;;;;;17.75;6.38;;;12.40;99.90;;;;;;5094374;28;20110;-71
2021/11/19 08:48:29;;;;;;;16.55;5.88;;;12.40;99.90;;;;;;5094263;28;20032;-70
2021/11/19 08:50:58;;;;;;;20.85;5.38;;;12.40;99.90;;;;;;5094163;28;20051;-70
2021/11/19 08:53:25;;;;;;;17.13;6.80;;;12.40;99.90;;;;;;5094280;28;20043;-71
2021/11/19 08:55:55;;;;;;;15.77;4.85;;;12.40;99.90;;;;;;5094564;28;20044;-70
2021/11/19 08:58:26;;;;;;;15.07;5.50;;;12.50;99.90;;;;;;5094002;28;20484;-71
2021/11/19 09:00:55;;;;;;;13.05;5.28;;;12.50;99.90;;;;;;5094184;28;20040;-70
2021/11/19 09:03:21;;;;;;;15.77;4.90;;;12.50;99.90;;;;;;5094252;28;20060;-70
2021/11/19 09:05:49;;;;;;;15.05;5.47;;;12.50;99.90;;;;;;5092962;28;20113;-70
2021/11/19 09:08:17;;;;;;;16.27;5.00;;;12.60;99.90;;;;;;5092803;28;20040;-71
2021/11/19 09:10:45;;;;;;;18.38;4.55;;;12.70;99.90;;;;;;5093457;28;20119;-70
2021/11/19 09:13:11;;;;;;;15.15;4.70;;;12.70;99.90;;;;;;5094279;28;20488;-70
2021/11/19 09:15:38;;;;;;;15.48;5.53;;;12.70;99.90;;;;;;5094072;28;20047;-71
2021/11/19 09:18:21;;;;;;;18.27;4.68;;;12.70;99.90;;;;;;5093754;28;20046;-71
2021/11/19 09:21:14;;;;;;;18.20;4.95;;;12.70;99.90;;;;;;5092430;28;20495;-70
2021/11/19 09:23:45;;;;;;;17.85;4.50;;;12.70;99.90;;;;;;5094495;28;20043;-70
2021/11/19 09:26:14;;;;;;;14.43;5.10;;;12.70;99.90;;;;;;5093720;28;20032;-70
2021/11/19 09:28:43;;;;;;;19.05;4.07;;;12.70;99.90;;;;;;5093438;28;20081;-70
2021/11/19 09:31:11;;;;;;;11.85;4.13;;;12.70;99.90;;;;;;5093573;28;20055;-70
2021/11/19 09:33:38;;;;;;;13.02;4.10;;;12.70;99.90;;;;;;5093829;28;20032;-70
2021/11/19 09:36:04;;;;;;;18.98;4.32;;;12.80;99.90;;;;;;5092493;28;20032;-70
2021/11/19 09:38:30;;;;;;;14.52;4.50;;;12.80;99.90;;;;;;5093161;28;20212;-70
2021/11/19 09:41:10;;;;;;;15.82;4.10;;;12.80;99.90;;;;;;5091960;28;20052;-70
2021/11/19 09:44:13;;;;;;;15.77;4.53;;;12.80;99.90;;;;;;5093502;28;20430;-70
2021/11/19 09:46:50;;;;;;;15.40;4.05;;;12.80;99.90;;;;;;5093423;28;20040;-70
2021/11/19 09:49:44;;;;;;;14.10;3.90;;;12.80;99.90;;;;;;5091683;28;20055;-70
2021/11/19 09:52:42;;;;;;;12.65;4.38;;;12.90;99.90;;;;;;5093516;28;20071;-69
2021/11/19 09:55:32;;;;;;;14.60;3.97;;;12.90;99.90;;;;;;5093261;28;20047;-70
2021/11/19 09:58:04;;;;;;;12.48;3.80;;;12.90;99.90;;;;;;5093473;28;20047;-70
2021/11/19 10:01:06;;;;;;;13.85;4.03;;;12.90;99.90;;;;;;5091733;28;20043;-70
2021/11/19 10:03:51;;;;;;;13.70;3.83;;;12.90;99.90;;;;;;5091990;28;20032;-70
2021/11/19 10:06:26;;;;;;;10.98;3.58;;;12.90;99.90;;;;;;5093262;28;20077;-70
2021/11/19 10:09:03;;;;;;;14.02;4.13;;;13.00;99.90;;;;;;5093182;28;20082;-70
2021/11/19 10:11:56;;;;;;;14.68;4.38;;;13.10;99.90;;;;;;5092388;28;20052;-68
2021/11/19 10:27:19;;;;;;;11.43;3.97;;;13.10;99.90;;;;;;5130814;27;20423;-69
2021/11/19 10:29:52;;;;;;;15.20;3.95;;;13.50;99.90;;;;;;5129223;28;20047;-68
2021/11/19 10:32:20;;;;;;;;;;;13.40;99.90;;;;;;5131379;27;20449;-69
2021/11/19 10:35:13;;;;;;;9.35;3.10;;;13.30;99.90;;;;;;5131256;27;19919;-69
2021/11/19 10:38:11;;;;;;;12.00;3.38;;;13.30;99.90;;;;;;5129133;27;20122;-69
2021/11/19 10:41:04;;;;;;;13.50;4.07;;;13.30;99.90;;;;;;5131269;27;20103;-69
2021/11/19 10:43:49;;;;;;;8.75;3.55;;;13.30;99.90;;;;;;5131128;27;20552;-69
2021/11/19 10:46:43;;;;;;;10.32;3.72;;;13.30;99.90;;;;;;5129323;27;20057;-68
2021/11/19 10:49:46;;;;;;;10.35;2.55;;;13.30;99.90;;;;;;5129544;27;20051;-69
2021/11/19 10:52:26;;;;;;;11.10;3.03;;;13.30;99.90;;;;;;5131351;27;20092;-69
2021/11/19 10:55:29;;;;;;;14.15;3.40;;;13.30;99.90;;;;;;5130920;27;20410;-68
2021/11/19 10:58:07;;;;;;;14.18;3.15;;;13.40;99.90;;;;;;5130906;27;20050;-68
2021/11/19 11:00:39;;;;;;;7.40;2.88;;;13.40;99.90;;;;;;5105469;28;20043;-69
2021/11/19 11:03:13;;;;;;;9.93;3.30;;;13.40;99.90;;;;;;5119698;28;20032;-68
2021/11/19 11:05:42;;;;;;;17.00;4.10;;;13.40;99.90;;;;;;5120952;28;20036;-68
2021/11/19 11:08:21;;;;;;;13.48;3.83;;;13.40;99.90;;;;;;5129635;28;20039;-69
2021/11/19 11:11:06;;;;;;;11.73;4.05;;;13.40;99.90;;;;;;5130521;27;20067;-70
2021/11/19 11:13:41;;;;;;;11.73;2.95;;;13.30;99.90;;;;;;5129082;27;20047;-70
2021/11/19 11:16:19;;;;;;;16.27;3.80;;;13.30;99.90;;;;;;5111700;28;20035;-70
2021/11/19 11:18:44;;;;;;;10.90;3.30;;;13.30;99.90;;;;;;5129276;28;20044;-70
2021/11/19 11:21:21;;;;;;;10.70;4.25;;;13.30;99.90;;;;;;5129430;28;20047;-70
2021/11/19 11:23:47;;;;;;;8.68;2.83;;;13.30;99.90;;;;;;5130353;27;20039;-70
2021/11/19 11:26:20;;;;;;;12.60;3.42;;;13.30;99.90;;;;;;5139887;27;20050;-70
2021/11/19 11:28:47;;;;;;;;;;;13.30;99.90;;;;;;5138152;27;20481;-70
2021/11/19 11:31:25;;;;;;;13.43;4.20;;;13.30;99.90;;;;;;5135875;27;19959;-70
2021/11/19 11:33:58;;;;;;;9.80;2.85;;;13.30;99.90;;;;;;5136009;27;20122;-70
2021/11/19 11:36:42;;;;;;;11.32;3.65;;;13.40;99.90;;;;;;5136730;27;20084;-70
2021/11/19 11:39:22;;;;;;;11.07;3.00;;;13.40;99.90;;;;;;5136339;27;20027;-70
2021/11/19 11:42:02;;;;;;;23.50;4.70;;;13.40;99.90;;;;;;5136820;27;20042;-70
2021/11/19 11:44:41;;;;;;;22.92;4.47;;;13.40;99.90;;;;;;5137320;27;20043;-69
2021/11/19 11:47:33;;;;;;;8.40;2.72;;;13.50;99.90;;;;;;5136727;27;20039;-70
2021/11/19 11:50:24;;;;;;;13.95;3.05;;;13.50;99.90;;;;;;5136787;27;20079;-70
2021/11/19 11:53:06;;;;;;;10.68;2.50;;;13.40;99.90;;;;;;5136943;27;20464;-70
2021/11/19 11:55:42;;;;;;;19.40;4.18;;;13.40;99.90;;;;;;5135178;27;20114;-71
2021/11/19 11:58:21;;;;;;;10.80;2.75;;;13.30;99.90;;;;;;5135842;27;20496;-70
2021/11/19 12:01:18;;;;;;;12.40;4.07;;;13.20;99.90;;;;;;5136743;27;20066;-70
2021/11/19 12:04:05;;;;;;;9.57;2.72;;;13.20;99.90;;;;;;5128042;27;20043;-71
2021/11/19 12:06:41;;;;;;;7.53;2.60;;;13.20;99.90;;;;;;5136231;27;20039;-70
2021/11/19 12:09:21;;;;;;;10.23;2.85;;;13.20;99.90;;;;;;5136768;27;20078;-69
2021/11/19 12:12:24;;;;;;;12.32;3.25;;;13.20;99.90;;;;;;5137072;27;20039;-70
2021/11/19 12:15:14;;;;;;;14.73;3.58;;;13.20;99.90;;;;;;5135488;27;20069;-70
2021/11/19 12:17:48;;;;;;;10.18;3.33;;;13.30;99.90;;;;;;5134514;27;20102;-70
2021/11/19 12:20:26;;;;;;;10.57;3.15;;;13.40;99.90;;;;;;5136457;27;20071;-71
2021/11/19 12:23:19;;;;;;;12.85;3.15;;;13.40;99.90;;;;;;5136017;27;20487;-71
2021/11/19 12:25:55;;;;;;;14.80;3.13;;;13.50;99.90;;;;;;5135663;27;20035;-71
2021/11/19 12:28:29;;;;;;;14.50;3.20;;;13.60;99.90;;;;;;5134926;27;20051;-70
2021/11/19 12:31:24;;;;;;;9.85;2.72;;;13.60;99.90;;;;;;5134943;27;20047;-70
2021/11/19 12:33:56;;;;;;;13.90;3.00;;;13.50;99.90;;;;;;5135749;27;20067;-69
2021/11/19 12:36:27;;;;;;;13.25;3.08;;;13.50;99.90;;;;;;5135269;27;20054;-68
2021/11/19 12:38:56;;;;;;;23.35;4.07;;;13.50;99.90;;;;;;5134921;27;20050;-69
2021/11/19 12:41:53;;;;;;;8.32;2.38;;;13.60;99.90;;;;;;5135624;27;20526;-69
2021/11/19 12:44:40;;;;;;;12.30;3.53;;;13.70;99.90;;;;;;5115419;27;20047;-69
2021/11/19 12:47:25;;;;;;;10.90;2.75;;;13.80;99.90;;;;;;5114665;28;20043;-69
2021/11/19 12:50:25;;;;;;;15.57;3.80;;;13.80;99.90;;;;;;5114234;28;20047;-69
2021/11/19 12:53:21;;;;;;;8.68;2.35;;;13.80;99.90;;;;;;5113844;28;20091;-70
2021/11/19 12:56:11;;;;;;;9.57;2.45;;;13.80;99.90;;;;;;5115881;28;20118;-69
2021/11/19 12:59:08;;;;;;;11.05;2.78;;;13.70;99.90;;;;;;5114798;28;20062;-69
2021/11/19 13:01:41;;;;;;;10.30;3.47;;;13.70;99.90;;;;;;5113377;28;20484;-70
2021/11/19 13:04:25;;;;;;;11.88;2.85;;;13.70;99.90;;;;;;5115130;28;20036;-70
2021/11/19 13:06:55;;;;;;;11.65;3.00;;;13.70;99.90;;;;;;5114851;28;20047;-70
2021/11/19 13:09:23;;;;;;;10.30;3.13;;;13.70;99.90;;;;;;5114613;28;20130;-70